sensor_id;sensor_type;location;lat;lon;timestamp;P1;durP1;ratioP1;P2;durP2;ratioP2
16015;SDS011;8112;53.592;10.184;2023-12-22T00:01:22;11.67;;;3.47;;
16015;SDS011;8112;53.592;10.184;2023-12-22T00:06:26;7.83;;;3.07;;
16015;SDS011;8112;53.592;10.184;2023-12-22T00:11:27;16.90;;;4.17;;
16015;SDS011;8112;53.592;10.184;2023-12-22T00:16:29;15.57;;;3.33;;
16015;SDS011;8112;53.592;10.184;2023-12-22T00:21:32;10.30;;;2.87;;
16015;SDS011;8112;53.592;10.184;2023-12-22T00:26:33;16.13;;;3.47;;
16015;SDS011;8112;53.592;10.184;2023-12-22T00:31:35;13.43;;;4.07;;
16015;SDS011;8112;53.592;10.184;2023-12-22T00:36:38;13.10;;;3.60;;
16015;SDS011;8112;53.592;10.184;2023-12-22T00:41:40;10.93;;;3.47;;
16015;SDS011;8112;53.592;10.184;2023-12-22T00:46:42;15.03;;;3.10;;
16015;SDS011;8112;53.592;10.184;2023-12-22T00:51:45;14.13;;;3.13;;
16015;SDS011;8112;53.592;10.184;2023-12-22T00:56:47;9.53;;;3.17;;
16015;SDS011;8112;53.592;10.184;2023-12-22T01:01:48;15.13;;;3.67;;
16015;SDS011;8112;53.592;10.184;2023-12-22T01:06:51;11.67;;;3.47;;
16015;SDS011;8112;53.592;10.184;2023-12-22T01:11:53;15.97;;;3.33;;
16015;SDS011;8112;53.592;10.184;2023-12-22T01:16:55;12.90;;;3.03;;
16015;SDS011;8112;53.592;10.184;2023-12-22T01:22:05;14.03;;;3.77;;
16015;SDS011;8112;53.592;10.184;2023-12-22T01:27:07;13.97;;;3.67;;
16015;SDS011;8112;53.592;10.184;2023-12-22T01:32:09;21.47;;;3.73;;
16015;SDS011;8112;53.592;10.184;2023-12-22T01:37:12;12.57;;;3.03;;
16015;SDS011;8112;53.592;10.184;2023-12-22T01:42:14;11.30;;;2.50;;
16015;SDS011;8112;53.592;10.184;2023-12-22T01:47:16;4.47;;;2.53;;
16015;SDS011;8112;53.592;10.184;2023-12-22T01:52:19;5.37;;;2.20;;
16015;SDS011;8112;53.592;10.184;2023-12-22T01:57:21;6.60;;;1.80;;
16015;SDS011;8112;53.592;10.184;2023-12-22T02:02:23;7.17;;;1.90;;
16015;SDS011;8112;53.592;10.184;2023-12-22T02:07:26;4.00;;;1.63;;
16015;SDS011;8112;53.592;10.184;2023-12-22T02:12:29;3.63;;;2.10;;
16015;SDS011;8112;53.592;10.184;2023-12-22T02:17:35;6.53;;;1.30;;
16015;SDS011;8112;53.592;10.184;2023-12-22T02:22:44;4.33;;;1.70;;
16015;SDS011;8112;53.592;10.184;2023-12-22T02:27:47;2.93;;;1.70;;
16015;SDS011;8112;53.592;10.184;2023-12-22T02:32:50;5.87;;;1.70;;
16015;SDS011;8112;53.592;10.184;2023-12-22T02:37:57;1.67;;;1.33;;
16015;SDS011;8112;53.592;10.184;2023-12-22T02:43:01;9.50;;;1.90;;
16015;SDS011;8112;53.592;10.184;2023-12-22T02:48:04;10.03;;;2.40;;
16015;SDS011;8112;53.592;10.184;2023-12-22T02:53:07;6.07;;;1.90;;
16015;SDS011;8112;53.592;10.184;2023-12-22T02:58:09;8.97;;;2.00;;
16015;SDS011;8112;53.592;10.184;2023-12-22T03:03:11;8.63;;;1.93;;
16015;SDS011;8112;53.592;10.184;2023-12-22T03:08:14;4.87;;;1.70;;
16015;SDS011;8112;53.592;10.184;2023-12-22T03:13:16;6.83;;;2.27;;
16015;SDS011;8112;53.592;10.184;2023-12-22T03:18:18;4.50;;;1.70;;
16015;SDS011;8112;53.592;10.184;2023-12-22T03:23:21;5.37;;;1.70;;
16015;SDS011;8112;53.592;10.184;2023-12-22T03:28:23;2.63;;;1.00;;
16015;SDS011;8112;53.592;10.184;2023-12-22T03:33:24;1.43;;;1.20;;
16015;SDS011;8112;53.592;10.184;2023-12-22T03:38:27;1.83;;;0.97;;
16015;SDS011;8112;53.592;10.184;2023-12-22T03:43:29;2.80;;;0.87;;
16015;SDS011;8112;53.592;10.184;2023-12-22T03:48:31;5.73;;;1.43;;
16015;SDS011;8112;53.592;10.184;2023-12-22T03:53:34;2.70;;;1.33;;
16015;SDS011;8112;53.592;10.184;2023-12-22T03:58:36;5.53;;;2.27;;
16015;SDS011;8112;53.592;10.184;2023-12-22T04:03:38;3.10;;;1.20;;
16015;SDS011;8112;53.592;10.184;2023-12-22T04:08:41;8.30;;;1.30;;
16015;SDS011;8112;53.592;10.184;2023-12-22T04:13:43;3.40;;;1.53;;
16015;SDS011;8112;53.592;10.184;2023-12-22T04:18:45;5.67;;;1.70;;
16015;SDS011;8112;53.592;10.184;2023-12-22T04:23:48;7.57;;;1.40;;
16015;SDS011;8112;53.592;10.184;2023-12-22T04:28:49;9.43;;;2.03;;
16015;SDS011;8112;53.592;10.184;2023-12-22T04:33:51;7.57;;;2.13;;
16015;SDS011;8112;53.592;10.184;2023-12-22T04:38:54;14.53;;;2.63;;
16015;SDS011;8112;53.592;10.184;2023-12-22T04:43:56;8.07;;;2.63;;
16015;SDS011;8112;53.592;10.184;2023-12-22T04:48:57;8.63;;;1.73;;
16015;SDS011;8112;53.592;10.184;2023-12-22T04:54:00;6.23;;;2.47;;
16015;SDS011;8112;53.592;10.184;2023-12-22T04:59:02;7.80;;;2.10;;
16015;SDS011;8112;53.592;10.184;2023-12-22T05:04:04;7.47;;;2.13;;
16015;SDS011;8112;53.592;10.184;2023-12-22T05:09:07;6.77;;;1.50;;
16015;SDS011;8112;53.592;10.184;2023-12-22T05:14:09;12.67;;;1.93;;
16015;SDS011;8112;53.592;10.184;2023-12-22T05:19:11;10.13;;;3.03;;
16015;SDS011;8112;53.592;10.184;2023-12-22T05:24:14;19.00;;;2.90;;
16015;SDS011;8112;53.592;10.184;2023-12-22T05:29:15;9.80;;;2.13;;
16015;SDS011;8112;53.592;10.184;2023-12-22T05:34:17;6.73;;;2.00;;
16015;SDS011;8112;53.592;10.184;2023-12-22T05:39:20;7.60;;;1.90;;
16015;SDS011;8112;53.592;10.184;2023-12-22T05:44:22;12.03;;;2.57;;
16015;SDS011;8112;53.592;10.184;2023-12-22T05:49:24;11.90;;;2.40;;
16015;SDS011;8112;53.592;10.184;2023-12-22T05:54:27;6.47;;;1.87;;
16015;SDS011;8112;53.592;10.184;2023-12-22T05:59:29;8.80;;;2.77;;
16015;SDS011;8112;53.592;10.184;2023-12-22T06:04:32;8.57;;;1.97;;
16015;SDS011;8112;53.592;10.184;2023-12-22T06:09:36;7.87;;;2.10;;
16015;SDS011;8112;53.592;10.184;2023-12-22T06:14:39;9.20;;;2.17;;
16015;SDS011;8112;53.592;10.184;2023-12-22T06:19:41;9.07;;;2.30;;
16015;SDS011;8112;53.592;10.184;2023-12-22T06:24:44;3.30;;;1.50;;
16015;SDS011;8112;53.592;10.184;2023-12-22T06:29:46;5.57;;;2.20;;
16015;SDS011;8112;53.592;10.184;2023-12-22T06:34:47;9.00;;;1.90;;
16015;SDS011;8112;53.592;10.184;2023-12-22T06:39:50;5.27;;;2.53;;
16015;SDS011;8112;53.592;10.184;2023-12-22T06:44:52;12.10;;;2.23;;
16015;SDS011;8112;53.592;10.184;2023-12-22T06:49:54;8.03;;;2.07;;
16015;SDS011;8112;53.592;10.184;2023-12-22T06:54:57;15.83;;;2.50;;
16015;SDS011;8112;53.592;10.184;2023-12-22T06:59:58;10.50;;;2.50;;
16015;SDS011;8112;53.592;10.184;2023-12-22T07:10:38;15.80;;;2.90;;
16015;SDS011;8112;53.592;10.184;2023-12-22T07:15:39;8.53;;;2.60;;
16015;SDS011;8112;53.592;10.184;2023-12-22T07:20:41;13.77;;;3.10;;
16015;SDS011;8112;53.592;10.184;2023-12-22T07:25:47;14.17;;;3.30;;
16015;SDS011;8112;53.592;10.184;2023-12-22T07:30:48;9.80;;;2.93;;
16015;SDS011;8112;53.592;10.184;2023-12-22T07:35:50;10.30;;;3.20;;
16015;SDS011;8112;53.592;10.184;2023-12-22T07:40:53;12.03;;;3.90;;
16015;SDS011;8112;53.592;10.184;2023-12-22T07:45:55;13.23;;;3.00;;
16015;SDS011;8112;53.592;10.184;2023-12-22T07:50:56;13.57;;;2.93;;
16015;SDS011;8112;53.592;10.184;2023-12-22T07:55:59;16.40;;;4.20;;
16015;SDS011;8112;53.592;10.184;2023-12-22T08:01:01;18.63;;;3.23;;
16015;SDS011;8112;53.592;10.184;2023-12-22T08:06:04;11.30;;;3.00;;
16015;SDS011;8112;53.592;10.184;2023-12-22T08:11:07;9.70;;;3.07;;
16015;SDS011;8112;53.592;10.184;2023-12-22T08:16:09;12.93;;;2.63;;
16015;SDS011;8112;53.592;10.184;2023-12-22T08:21:11;9.10;;;2.90;;
16015;SDS011;8112;53.592;10.184;2023-12-22T08:26:14;11.70;;;2.70;;
16015;SDS011;8112;53.592;10.184;2023-12-22T08:31:17;9.63;;;2.30;;
16015;SDS011;8112;53.592;10.184;2023-12-22T08:36:19;7.67;;;2.53;;
16015;SDS011;8112;53.592;10.184;2023-12-22T08:41:22;13.63;;;2.83;;
16015;SDS011;8112;53.592;10.184;2023-12-22T08:46:24;9.63;;;2.67;;
16015;SDS011;8112;53.592;10.184;2023-12-22T08:51:26;12.47;;;2.90;;
16015;SDS011;8112;53.592;10.184;2023-12-22T08:56:30;11.77;;;2.70;;
16015;SDS011;8112;53.592;10.184;2023-12-22T09:01:31;12.03;;;2.73;;
16015;SDS011;8112;53.592;10.184;2023-12-22T09:06:33;13.30;;;3.73;;
16015;SDS011;8112;53.592;10.184;2023-12-22T09:11:36;9.87;;;2.63;;
16015;SDS011;8112;53.592;10.184;2023-12-22T09:16:38;12.00;;;2.87;;
16015;SDS011;8112;53.592;10.184;2023-12-22T09:21:39;12.53;;;3.50;;
16015;SDS011;8112;53.592;10.184;2023-12-22T09:26:43;6.67;;;2.07;;
16015;SDS011;8112;53.592;10.184;2023-12-22T09:31:45;8.43;;;2.00;;
16015;SDS011;8112;53.592;10.184;2023-12-22T09:36:46;9.43;;;2.43;;
16015;SDS011;8112;53.592;10.184;2023-12-22T09:41:50;8.20;;;1.83;;
16015;SDS011;8112;53.592;10.184;2023-12-22T09:46:51;10.20;;;2.10;;
16015;SDS011;8112;53.592;10.184;2023-12-22T09:51:53;6.30;;;2.10;;
16015;SDS011;8112;53.592;10.184;2023-12-22T09:56:57;7.17;;;2.00;;
16015;SDS011;8112;53.592;10.184;2023-12-22T10:02:00;5.30;;;1.70;;
16015;SDS011;8112;53.592;10.184;2023-12-22T10:07:05;8.97;;;1.80;;
16015;SDS011;8112;53.592;10.184;2023-12-22T10:12:09;5.93;;;1.97;;
16015;SDS011;8112;53.592;10.184;2023-12-22T10:17:12;8.93;;;2.60;;
16015;SDS011;8112;53.592;10.184;2023-12-22T10:22:26;9.00;;;2.10;;
16015;SDS011;8112;53.592;10.184;2023-12-22T10:27:28;9.37;;;2.33;;
16015;SDS011;8112;53.592;10.184;2023-12-22T10:32:32;11.10;;;2.73;;
16015;SDS011;8112;53.592;10.184;2023-12-22T10:37:36;17.37;;;3.70;;
16015;SDS011;8112;53.592;10.184;2023-12-22T10:42:39;9.27;;;2.60;;
16015;SDS011;8112;53.592;10.184;2023-12-22T10:47:41;7.53;;;2.90;;
16015;SDS011;8112;53.592;10.184;2023-12-22T10:52:49;11.53;;;3.20;;
16015;SDS011;8112;53.592;10.184;2023-12-22T10:57:51;13.17;;;3.27;;
16015;SDS011;8112;53.592;10.184;2023-12-22T11:02:57;10.33;;;2.17;;
16015;SDS011;8112;53.592;10.184;2023-12-22T11:08:05;9.97;;;2.80;;
16015;SDS011;8112;53.592;10.184;2023-12-22T11:13:09;8.23;;;2.27;;
16015;SDS011;8112;53.592;10.184;2023-12-22T11:18:13;8.93;;;2.27;;
16015;SDS011;8112;53.592;10.184;2023-12-22T11:23:18;5.73;;;1.80;;
16015;SDS011;8112;53.592;10.184;2023-12-22T11:28:22;6.47;;;2.20;;
16015;SDS011;8112;53.592;10.184;2023-12-22T11:33:25;8.13;;;1.97;;
16015;SDS011;8112;53.592;10.184;2023-12-22T11:38:30;6.87;;;2.00;;
16015;SDS011;8112;53.592;10.184;2023-12-22T11:43:33;11.67;;;4.03;;
16015;SDS011;8112;53.592;10.184;2023-12-22T11:48:37;6.17;;;2.30;;
16015;SDS011;8112;53.592;10.184;2023-12-22T11:53:43;5.03;;;2.13;;
16015;SDS011;8112;53.592;10.184;2023-12-22T11:58:46;10.27;;;2.20;;
16015;SDS011;8112;53.592;10.184;2023-12-22T12:03:52;9.57;;;2.90;;
16015;SDS011;8112;53.592;10.184;2023-12-22T12:08:57;5.87;;;1.63;;
16015;SDS011;8112;53.592;10.184;2023-12-22T12:14:01;8.10;;;2.47;;
16015;SDS011;8112;53.592;10.184;2023-12-22T12:19:11;6.53;;;2.97;;
16015;SDS011;8112;53.592;10.184;2023-12-22T12:24:15;8.73;;;2.57;;
16015;SDS011;8112;53.592;10.184;2023-12-22T12:29:19;8.57;;;2.53;;
16015;SDS011;8112;53.592;10.184;2023-12-22T12:34:21;9.00;;;2.17;;
16015;SDS011;8112;53.592;10.184;2023-12-22T12:39:26;7.43;;;2.20;;
16015;SDS011;8112;53.592;10.184;2023-12-22T12:44:33;8.70;;;2.20;;
16015;SDS011;8112;53.592;10.184;2023-12-22T12:49:36;10.53;;;2.43;;
16015;SDS011;8112;53.592;10.184;2023-12-22T12:54:40;7.60;;;1.80;;
16015;SDS011;8112;53.592;10.184;2023-12-22T12:59:44;7.40;;;2.07;;
16015;SDS011;8112;53.592;10.184;2023-12-22T13:04:47;10.47;;;1.63;;
16015;SDS011;8112;53.592;10.184;2023-12-22T13:09:50;7.10;;;1.80;;
16015;SDS011;8112;53.592;10.184;2023-12-22T13:14:54;4.67;;;1.67;;
16015;SDS011;8112;53.592;10.184;2023-12-22T13:19:56;4.57;;;2.00;;
16015;SDS011;8112;53.592;10.184;2023-12-22T13:25:00;7.13;;;1.80;;
16015;SDS011;8112;53.592;10.184;2023-12-22T13:30:02;6.27;;;1.90;;
16015;SDS011;8112;53.592;10.184;2023-12-22T13:35:05;7.13;;;1.73;;
16015;SDS011;8112;53.592;10.184;2023-12-22T13:40:11;7.03;;;2.23;;
16015;SDS011;8112;53.592;10.184;2023-12-22T13:45:14;11.30;;;2.93;;
16015;SDS011;8112;53.592;10.184;2023-12-22T13:50:17;11.07;;;2.63;;
16015;SDS011;8112;53.592;10.184;2023-12-22T13:55:26;7.80;;;2.03;;
16015;SDS011;8112;53.592;10.184;2023-12-22T14:00:28;5.57;;;1.80;;
16015;SDS011;8112;53.592;10.184;2023-12-22T14:05:31;6.27;;;2.07;;
16015;SDS011;8112;53.592;10.184;2023-12-22T14:10:36;6.80;;;2.03;;
16015;SDS011;8112;53.592;10.184;2023-12-22T14:15:38;10.30;;;2.50;;
16015;SDS011;8112;53.592;10.184;2023-12-22T14:20:40;9.00;;;2.00;;
16015;SDS011;8112;53.592;10.184;2023-12-22T14:25:43;6.13;;;2.33;;
16015;SDS011;8112;53.592;10.184;2023-12-22T14:30:46;6.23;;;2.00;;
16015;SDS011;8112;53.592;10.184;2023-12-22T14:35:48;9.30;;;2.10;;
16015;SDS011;8112;53.592;10.184;2023-12-22T14:40:52;8.30;;;2.57;;
16015;SDS011;8112;53.592;10.184;2023-12-22T14:45:54;8.03;;;2.60;;
16015;SDS011;8112;53.592;10.184;2023-12-22T14:50:55;9.00;;;2.60;;
16015;SDS011;8112;53.592;10.184;2023-12-22T14:55:59;7.30;;;2.30;;
16015;SDS011;8112;53.592;10.184;2023-12-22T15:01:02;8.40;;;2.50;;
16015;SDS011;8112;53.592;10.184;2023-12-22T15:06:04;9.63;;;2.20;;
16015;SDS011;8112;53.592;10.184;2023-12-22T15:11:09;11.17;;;2.33;;
16015;SDS011;8112;53.592;10.184;2023-12-22T15:16:11;6.23;;;2.13;;
16015;SDS011;8112;53.592;10.184;2023-12-22T15:21:18;9.70;;;2.67;;
16015;SDS011;8112;53.592;10.184;2023-12-22T15:26:22;6.63;;;2.30;;
16015;SDS011;8112;53.592;10.184;2023-12-22T15:31:25;6.43;;;1.87;;
16015;SDS011;8112;53.592;10.184;2023-12-22T15:36:29;5.87;;;2.27;;
16015;SDS011;8112;53.592;10.184;2023-12-22T15:41:32;6.50;;;3.10;;
16015;SDS011;8112;53.592;10.184;2023-12-22T15:46:34;8.83;;;2.60;;
16015;SDS011;8112;53.592;10.184;2023-12-22T15:51:36;5.87;;;2.27;;
16015;SDS011;8112;53.592;10.184;2023-12-22T15:56:40;6.93;;;2.60;;
16015;SDS011;8112;53.592;10.184;2023-12-22T16:01:42;8.23;;;2.57;;
16015;SDS011;8112;53.592;10.184;2023-12-22T16:06:45;6.07;;;2.20;;
16015;SDS011;8112;53.592;10.184;2023-12-22T16:11:48;5.00;;;1.90;;
16015;SDS011;8112;53.592;10.184;2023-12-22T16:16:54;7.23;;;2.40;;
16015;SDS011;8112;53.592;10.184;2023-12-22T16:21:56;9.57;;;2.10;;
16015;SDS011;8112;53.592;10.184;2023-12-22T16:27:02;6.97;;;2.50;;
16015;SDS011;8112;53.592;10.184;2023-12-22T16:32:04;7.53;;;2.17;;
16015;SDS011;8112;53.592;10.184;2023-12-22T16:37:06;7.07;;;2.37;;
16015;SDS011;8112;53.592;10.184;2023-12-22T16:42:10;11.20;;;2.93;;
16015;SDS011;8112;53.592;10.184;2023-12-22T16:47:12;8.03;;;2.90;;
16015;SDS011;8112;53.592;10.184;2023-12-22T16:52:14;5.97;;;2.67;;
16015;SDS011;8112;53.592;10.184;2023-12-22T16:57:18;10.63;;;2.87;;
16015;SDS011;8112;53.592;10.184;2023-12-22T17:02:20;8.10;;;2.63;;
16015;SDS011;8112;53.592;10.184;2023-12-22T17:07:22;11.13;;;3.10;;
16015;SDS011;8112;53.592;10.184;2023-12-22T17:12:25;5.57;;;1.97;;
16015;SDS011;8112;53.592;10.184;2023-12-22T17:17:27;12.03;;;2.30;;
16015;SDS011;8112;53.592;10.184;2023-12-22T17:22:30;9.77;;;2.57;;
16015;SDS011;8112;53.592;10.184;2023-12-22T17:27:35;3.97;;;1.87;;
16015;SDS011;8112;53.592;10.184;2023-12-22T17:32:37;6.90;;;1.80;;
16015;SDS011;8112;53.592;10.184;2023-12-22T17:37:39;6.40;;;2.27;;
16015;SDS011;8112;53.592;10.184;2023-12-22T17:42:42;6.70;;;2.20;;
16015;SDS011;8112;53.592;10.184;2023-12-22T17:47:44;8.53;;;2.10;;
16015;SDS011;8112;53.592;10.184;2023-12-22T17:52:46;4.63;;;1.50;;
16015;SDS011;8112;53.592;10.184;2023-12-22T17:57:52;3.10;;;1.97;;
16015;SDS011;8112;53.592;10.184;2023-12-22T18:02:53;8.43;;;2.87;;
16015;SDS011;8112;53.592;10.184;2023-12-22T18:07:55;3.97;;;2.20;;
16015;SDS011;8112;53.592;10.184;2023-12-22T18:13:01;4.60;;;2.23;;
16015;SDS011;8112;53.592;10.184;2023-12-22T18:18:03;5.90;;;3.73;;
16015;SDS011;8112;53.592;10.184;2023-12-22T18:23:05;11.07;;;4.00;;
16015;SDS011;8112;53.592;10.184;2023-12-22T18:28:10;7.53;;;3.40;;
16015;SDS011;8112;53.592;10.184;2023-12-22T18:33:12;9.73;;;3.07;;
16015;SDS011;8112;53.592;10.184;2023-12-22T18:38:14;5.03;;;2.30;;
16015;SDS011;8112;53.592;10.184;2023-12-22T18:43:19;4.87;;;2.17;;
16015;SDS011;8112;53.592;10.184;2023-12-22T18:48:21;3.67;;;2.20;;
16015;SDS011;8112;53.592;10.184;2023-12-22T18:53:23;8.03;;;2.60;;
16015;SDS011;8112;53.592;10.184;2023-12-22T18:58:27;8.77;;;2.60;;
16015;SDS011;8112;53.592;10.184;2023-12-22T19:03:29;7.97;;;1.70;;
16015;SDS011;8112;53.592;10.184;2023-12-22T19:08:31;4.40;;;1.63;;
16015;SDS011;8112;53.592;10.184;2023-12-22T19:13:35;8.50;;;2.10;;
16015;SDS011;8112;53.592;10.184;2023-12-22T19:18:38;4.33;;;1.43;;
16015;SDS011;8112;53.592;10.184;2023-12-22T19:23:42;4.00;;;1.77;;
16015;SDS011;8112;53.592;10.184;2023-12-22T19:28:48;2.40;;;1.33;;
16015;SDS011;8112;53.592;10.184;2023-12-22T19:33:49;4.30;;;1.50;;
16015;SDS011;8112;53.592;10.184;2023-12-22T19:38:51;2.53;;;1.27;;
16015;SDS011;8112;53.592;10.184;2023-12-22T19:43:56;7.10;;;1.60;;
16015;SDS011;8112;53.592;10.184;2023-12-22T19:48:57;6.27;;;1.87;;
16015;SDS011;8112;53.592;10.184;2023-12-22T19:54:00;8.13;;;2.40;;
16015;SDS011;8112;53.592;10.184;2023-12-22T19:59:03;3.83;;;1.67;;
16015;SDS011;8112;53.592;10.184;2023-12-22T20:04:06;5.57;;;1.50;;
16015;SDS011;8112;53.592;10.184;2023-12-22T20:09:08;10.53;;;2.30;;
16015;SDS011;8112;53.592;10.184;2023-12-22T20:14:12;5.03;;;2.10;;
16015;SDS011;8112;53.592;10.184;2023-12-22T20:19:14;6.73;;;1.73;;
16015;SDS011;8112;53.592;10.184;2023-12-22T20:24:16;10.37;;;2.27;;
16015;SDS011;8112;53.592;10.184;2023-12-22T20:29:19;13.37;;;3.33;;
16015;SDS011;8112;53.592;10.184;2023-12-22T20:34:22;4.97;;;1.90;;
16015;SDS011;8112;53.592;10.184;2023-12-22T20:39:23;9.30;;;2.40;;
16015;SDS011;8112;53.592;10.184;2023-12-22T20:44:27;6.87;;;2.20;;
16015;SDS011;8112;53.592;10.184;2023-12-22T20:49:29;5.13;;;2.33;;
16015;SDS011;8112;53.592;10.184;2023-12-22T20:54:30;7.70;;;2.13;;
16015;SDS011;8112;53.592;10.184;2023-12-22T20:59:35;5.37;;;1.90;;
16015;SDS011;8112;53.592;10.184;2023-12-22T21:04:38;7.50;;;1.53;;
16015;SDS011;8112;53.592;10.184;2023-12-22T21:09:40;6.93;;;2.27;;
16015;SDS011;8112;53.592;10.184;2023-12-22T21:14:43;10.50;;;2.07;;
16015;SDS011;8112;53.592;10.184;2023-12-22T21:19:45;7.40;;;1.83;;
16015;SDS011;8112;53.592;10.184;2023-12-22T21:24:47;6.63;;;1.80;;
16015;SDS011;8112;53.592;10.184;2023-12-22T21:29:51;5.70;;;1.63;;
16015;SDS011;8112;53.592;10.184;2023-12-22T21:34:53;5.40;;;1.57;;
16015;SDS011;8112;53.592;10.184;2023-12-22T21:39:55;4.57;;;1.40;;
16015;SDS011;8112;53.592;10.184;2023-12-22T21:44:59;2.93;;;1.40;;
16015;SDS011;8112;53.592;10.184;2023-12-22T21:50:03;4.37;;;1.40;;
16015;SDS011;8112;53.592;10.184;2023-12-22T21:55:06;4.33;;;1.50;;
16015;SDS011;8112;53.592;10.184;2023-12-22T22:00:13;1.80;;;1.30;;
16015;SDS011;8112;53.592;10.184;2023-12-22T22:05:16;6.53;;;1.60;;
16015;SDS011;8112;53.592;10.184;2023-12-22T22:10:18;3.50;;;1.63;;
16015;SDS011;8112;53.592;10.184;2023-12-22T22:15:23;2.77;;;1.60;;
16015;SDS011;8112;53.592;10.184;2023-12-22T22:20:25;2.10;;;1.27;;
16015;SDS011;8112;53.592;10.184;2023-12-22T22:25:28;4.73;;;1.40;;
16015;SDS011;8112;53.592;10.184;2023-12-22T22:30:32;7.90;;;2.27;;
16015;SDS011;8112;53.592;10.184;2023-12-22T22:35:34;4.03;;;1.40;;
16015;SDS011;8112;53.592;10.184;2023-12-22T22:40:36;5.77;;;1.60;;
16015;SDS011;8112;53.592;10.184;2023-12-22T22:45:42;5.00;;;1.53;;
16015;SDS011;8112;53.592;10.184;2023-12-22T22:50:44;3.17;;;1.27;;
16015;SDS011;8112;53.592;10.184;2023-12-22T22:55:46;8.67;;;3.23;;
16015;SDS011;8112;53.592;10.184;2023-12-22T23:00:49;4.73;;;1.23;;
16015;SDS011;8112;53.592;10.184;2023-12-22T23:05:52;3.57;;;1.43;;
16015;SDS011;8112;53.592;10.184;2023-12-22T23:10:54;4.10;;;1.77;;
16015;SDS011;8112;53.592;10.184;2023-12-22T23:15:58;7.17;;;1.70;;
16015;SDS011;8112;53.592;10.184;2023-12-22T23:21:00;3.87;;;1.50;;
16015;SDS011;8112;53.592;10.184;2023-12-22T23:26:02;6.67;;;1.47;;
16015;SDS011;8112;53.592;10.184;2023-12-22T23:31:06;3.53;;;1.87;;
16015;SDS011;8112;53.592;10.184;2023-12-22T23:36:08;3.77;;;1.37;;
16015;SDS011;8112;53.592;10.184;2023-12-22T23:41:10;4.10;;;1.23;;
16015;SDS011;8112;53.592;10.184;2023-12-22T23:46:14;9.50;;;1.67;;
16015;SDS011;8112;53.592;10.184;2023-12-22T23:51:16;6.40;;;1.70;;
16015;SDS011;8112;53.592;10.184;2023-12-22T23:56:18;6.47;;;1.60;;
